createdAt,value
2019-02-16T00:01:53.606Z,99.90
2019-02-16T00:04:23.867Z,99.90
2019-02-16T00:06:53.991Z,99.90
2019-02-16T00:09:23.683Z,99.90
2019-02-16T00:11:53.403Z,99.90
2019-02-16T00:14:23.192Z,99.90
2019-02-16T00:16:52.821Z,99.90
2019-02-16T00:19:22.595Z,99.90
2019-02-16T00:21:52.264Z,99.90
2019-02-16T00:24:21.899Z,99.90
2019-02-16T00:26:51.545Z,99.90
2019-02-16T00:29:21.197Z,99.90
2019-02-16T00:31:50.889Z,99.90
2019-02-16T00:34:20.791Z,99.90
2019-02-16T00:36:50.469Z,99.90
2019-02-16T00:39:20.340Z,99.90
2019-02-16T00:41:50.023Z,99.90
2019-02-16T00:44:19.740Z,99.90
2019-02-16T00:46:49.698Z,99.90
2019-02-16T00:49:19.776Z,99.90
2019-02-16T00:51:49.751Z,99.90
2019-02-16T00:54:19.959Z,99.90
2019-02-16T00:56:49.934Z,99.90
2019-02-16T00:59:19.954Z,99.90
2019-02-16T01:01:49.705Z,99.90
2019-02-16T01:04:19.339Z,99.90
2019-02-16T01:06:49.196Z,99.90
2019-02-16T01:09:18.979Z,99.90
2019-02-16T01:11:48.671Z,99.90
2019-02-16T01:14:18.776Z,99.90
2019-02-16T01:16:48.955Z,99.90
2019-02-16T01:19:18.582Z,99.90
2019-02-16T01:21:48.596Z,99.90
2019-02-16T01:24:18.256Z,99.90
2019-02-16T01:26:48.103Z,99.90
2019-02-16T01:29:18.227Z,99.90
2019-02-16T01:31:48.306Z,99.90
2019-02-16T01:34:18.020Z,99.90
2019-02-16T01:36:48.259Z,99.90
2019-02-16T01:39:17.990Z,99.90
2019-02-16T01:41:48.048Z,99.90
2019-02-16T01:44:17.711Z,99.90
2019-02-16T01:46:47.379Z,99.90
2019-02-16T01:49:17.042Z,99.90
2019-02-16T01:51:46.679Z,99.90
2019-02-16T01:54:16.500Z,99.90
2019-02-16T01:56:46.360Z,99.90
2019-02-16T01:59:16.381Z,99.90
2019-02-16T02:01:46.328Z,99.90
2019-02-16T02:04:16.506Z,99.90
2019-02-16T02:06:46.789Z,99.90
2019-02-16T02:09:16.992Z,99.90
2019-02-16T02:11:46.606Z,99.90
2019-02-16T02:14:16.275Z,99.90
2019-02-16T02:16:45.955Z,99.90
2019-02-16T02:19:15.600Z,99.90
2019-02-16T02:21:45.617Z,99.90
2019-02-16T02:24:15.235Z,99.90
2019-02-16T02:26:44.967Z,99.90
2019-02-16T02:29:14.627Z,99.90
2019-02-16T02:31:44.279Z,99.90
2019-02-16T02:34:14.373Z,99.90
2019-02-16T02:36:44.025Z,99.90
2019-02-16T02:39:13.631Z,99.90
2019-02-16T02:41:43.433Z,99.90
2019-02-16T02:44:13.487Z,99.90
2019-02-16T02:46:43.468Z,99.90
2019-02-16T02:49:13.462Z,99.90
2019-02-16T02:51:51.699Z,99.90
2019-02-16T02:54:14.718Z,99.90
2019-02-16T02:56:44.381Z,99.90
2019-02-16T02:59:14.019Z,99.90
2019-02-16T03:01:43.655Z,99.90
2019-02-16T03:04:13.327Z,99.90
2019-02-16T03:06:43.392Z,99.90
2019-02-16T03:09:13.377Z,99.90
2019-02-16T03:11:43.084Z,99.90
2019-02-16T03:14:12.705Z,99.90
2019-02-16T03:16:42.329Z,99.90
2019-02-16T03:19:12.054Z,99.90
2019-02-16T03:21:42.045Z,99.90
2019-02-16T03:24:11.656Z,99.90
2019-02-16T03:26:45.708Z,99.90
2019-02-16T03:29:21.236Z,99.90
2019-02-16T03:32:50.187Z,99.90
2019-02-16T03:36:24.525Z,99.90
2019-02-16T03:39:09.926Z,99.90
2019-02-16T03:41:39.513Z,99.90
2019-02-16T03:44:09.469Z,99.90
2019-02-16T03:46:39.113Z,99.90
2019-02-16T03:49:08.767Z,99.90
2019-02-16T03:51:38.413Z,99.90
2019-02-16T03:54:08.134Z,99.90
2019-02-16T03:56:37.756Z,99.90
2019-02-16T03:59:07.900Z,99.90
2019-02-16T04:01:37.580Z,99.90
2019-02-16T04:04:07.225Z,99.90
2019-02-16T04:06:36.875Z,99.90
2019-02-16T04:09:07.522Z,99.90
2019-02-16T04:11:37.166Z,99.90
2019-02-16T04:14:07.218Z,99.90
2019-02-16T04:16:36.926Z,99.90
2019-02-16T04:19:06.561Z,99.90
2019-02-16T04:21:36.538Z,99.90
2019-02-16T04:24:06.248Z,99.90
2019-02-16T04:26:36.261Z,99.90
2019-02-16T04:29:06.378Z,99.90
2019-02-16T04:31:36.076Z,99.90
2019-02-16T04:34:05.723Z,99.90
2019-02-16T04:36:35.369Z,99.90
2019-02-16T04:39:06.558Z,99.90
2019-02-16T04:41:36.259Z,99.90
2019-02-16T04:44:06.388Z,99.90
2019-02-16T04:46:36.404Z,99.90
2019-02-16T04:49:06.190Z,99.90
2019-02-16T04:51:36.329Z,99.90
2019-02-16T04:54:06.363Z,99.90
2019-02-16T04:56:36.124Z,99.90
2019-02-16T04:59:06.291Z,99.90
2019-02-16T05:01:35.904Z,99.90
2019-02-16T05:04:05.641Z,99.90
2019-02-16T05:06:35.325Z,99.90
2019-02-16T05:09:06.665Z,99.90
2019-02-16T05:11:36.346Z,99.90
2019-02-16T05:14:06.401Z,99.90
2019-02-16T05:16:36.253Z,99.90
2019-02-16T05:19:05.875Z,99.90
2019-02-16T05:21:35.914Z,99.90
2019-02-16T05:24:05.610Z,99.90
2019-02-16T05:26:35.254Z,99.90
2019-02-16T05:29:05.675Z,99.90
2019-02-16T05:31:36.130Z,99.90
2019-02-16T05:34:05.798Z,99.90
2019-02-16T05:36:35.851Z,99.90
2019-02-16T05:39:06.441Z,99.90
2019-02-16T05:41:36.466Z,99.90
2019-02-16T05:44:06.080Z,99.90
2019-02-16T05:46:35.765Z,99.90
2019-02-16T05:49:05.930Z,99.90
2019-02-16T05:51:35.997Z,99.90
2019-02-16T05:54:06.068Z,99.90
2019-02-16T05:56:36.082Z,99.90
2019-02-16T05:59:07.950Z,99.90
2019-02-16T06:01:37.091Z,99.90
2019-02-16T06:04:06.813Z,99.90
2019-02-16T06:06:36.761Z,99.90
2019-02-16T06:09:06.943Z,99.90
2019-02-16T06:11:36.604Z,99.90
2019-02-16T06:14:06.318Z,99.90
2019-02-16T06:16:35.932Z,99.90
2019-02-16T06:19:05.924Z,99.90
2019-02-16T06:21:36.084Z,99.90
2019-02-16T06:24:06.146Z,99.90
2019-02-16T06:26:36.210Z,99.90
2019-02-16T06:29:06.266Z,99.90
2019-02-16T06:31:36.400Z,99.90
2019-02-16T06:34:06.441Z,99.90
2019-02-16T06:36:41.387Z,99.90
2019-02-16T06:39:11.388Z,99.90
2019-02-16T06:41:41.477Z,99.90
2019-02-16T06:44:11.363Z,99.90
2019-02-16T06:46:41.327Z,99.90
2019-02-16T06:49:11.597Z,99.90
2019-02-16T06:51:41.268Z,99.90
2019-02-16T06:54:11.401Z,99.90
2019-02-16T06:57:18.470Z,99.90
2019-02-16T06:59:48.272Z,99.90
2019-02-16T07:02:18.490Z,99.90
2019-02-16T07:04:48.564Z,99.90
2019-02-16T07:07:18.558Z,99.90
2019-02-16T07:09:48.256Z,99.90
2019-02-16T07:12:17.973Z,99.90
2019-02-16T07:14:48.224Z,99.90
2019-02-16T07:17:40.090Z,99.90
2019-02-16T07:20:10.225Z,99.90
2019-02-16T07:22:40.279Z,99.90
2019-02-16T07:25:10.294Z,99.90
2019-02-16T07:27:40.317Z,99.90
2019-02-16T07:30:11.223Z,99.90
2019-02-16T07:32:41.587Z,99.90
2019-02-16T07:35:11.750Z,99.90
2019-02-16T07:37:41.455Z,99.90
2019-02-16T07:40:11.474Z,99.90
2019-02-16T07:43:06.073Z,99.90
2019-02-16T07:46:00.696Z,99.90
2019-02-16T07:48:45.687Z,99.90
2019-02-16T07:51:32.619Z,99.90
2019-02-16T07:54:11.755Z,99.90
2019-02-16T07:57:00.753Z,99.90
2019-02-16T07:59:47.951Z,99.90
2019-02-16T08:02:48.837Z,99.90
2019-02-16T08:05:40.894Z,99.90
2019-02-16T08:08:23.375Z,99.90
2019-02-16T08:11:11.251Z,99.90
2019-02-16T08:13:47.573Z,99.90
2019-02-16T08:16:39.522Z,99.70
2019-02-16T08:19:16.900Z,99.50
2019-02-16T08:21:59.539Z,98.80
2019-02-16T08:24:57.587Z,98.00
2019-02-16T08:27:46.159Z,98.10
2019-02-16T08:30:34.730Z,98.30
2019-02-16T08:33:22.205Z,98.20
2019-02-16T08:36:06.122Z,97.50
2019-02-16T08:38:52.946Z,97.20
2019-02-16T08:41:40.827Z,96.50
2019-02-16T08:44:19.166Z,96.10
2019-02-16T08:47:07.040Z,95.90
2019-02-16T08:49:49.074Z,94.50
2019-02-16T08:52:40.763Z,95.50
2019-02-16T08:55:26.087Z,94.70
2019-02-16T08:58:03.785Z,93.80
2019-02-16T09:00:47.381Z,93.10
2019-02-16T09:03:28.781Z,92.50
2019-02-16T09:06:16.502Z,92.00
2019-02-16T09:09:17.636Z,92.00
2019-02-16T09:12:11.775Z,91.60
2019-02-16T09:15:06.393Z,91.30
2019-02-16T09:17:54.016Z,90.50
2019-02-16T09:20:43.034Z,90.50
2019-02-16T09:23:31.567Z,86.70
2019-02-16T09:26:26.428Z,86.60
2019-02-16T09:29:06.861Z,86.20
2019-02-16T09:31:58.566Z,84.90
2019-02-16T09:34:35.781Z,82.30
2019-02-16T09:37:36.642Z,79.80
2019-02-16T09:40:24.272Z,77.90
2019-02-16T09:43:04.060Z,77.10
2019-02-16T09:45:58.908Z,74.10
2019-02-16T09:48:44.169Z,73.40
2019-02-16T09:51:31.726Z,73.10
2019-02-16T09:54:20.952Z,70.00
2019-02-16T09:57:09.848Z,70.60
2019-02-16T09:59:54.278Z,66.90
2019-02-16T10:02:48.935Z,66.30
2019-02-16T10:05:41.321Z,63.90
2019-02-16T10:08:30.200Z,64.10
2019-02-16T10:11:07.055Z,61.60
2019-02-16T10:13:59.268Z,61.20
2019-02-16T10:16:45.387Z,59.70
2019-02-16T10:19:37.292Z,58.70
2019-02-16T10:22:44.264Z,60.00
2019-02-16T10:25:33.086Z,58.90
2019-02-16T10:28:33.820Z,57.00
2019-02-16T10:31:25.691Z,55.80
2019-02-16T10:34:14.606Z,56.10
2019-02-16T10:36:54.453Z,54.90
2019-02-16T10:39:43.328Z,55.30
2019-02-16T10:42:21.699Z,55.20
2019-02-16T10:45:16.539Z,54.70
2019-02-16T10:47:58.756Z,52.60
2019-02-16T10:50:47.767Z,51.90
2019-02-16T10:53:42.582Z,52.10
2019-02-16T10:56:34.110Z,51.80
2019-02-16T10:59:25.898Z,50.50
2019-02-16T11:02:14.756Z,50.10
2019-02-16T11:05:09.950Z,50.40
2019-02-16T11:07:58.935Z,50.50
2019-02-16T11:10:50.841Z,49.80
2019-02-16T11:13:34.431Z,52.00
2019-02-16T11:16:21.270Z,53.30
2019-02-16T11:19:07.002Z,52.70
2019-02-16T11:22:07.989Z,54.40
2019-02-16T11:25:06.160Z,54.50
2019-02-16T11:27:58.050Z,54.90
2019-02-16T11:30:43.362Z,54.50
2019-02-16T11:33:41.299Z,54.00
2019-02-16T11:36:32.991Z,53.50
2019-02-16T11:39:10.437Z,52.80
2019-02-16T11:42:04.168Z,52.10
2019-02-16T11:44:53.089Z,50.60
2019-02-16T11:47:57.127Z,50.60
2019-02-16T11:50:44.733Z,50.10
2019-02-16T11:53:39.440Z,49.60
2019-02-16T11:56:34.333Z,50.20
2019-02-16T11:59:23.326Z,50.70
2019-02-16T12:02:08.171Z,51.10
2019-02-16T12:05:03.442Z,52.80
2019-02-16T12:07:52.261Z,53.50
2019-02-16T12:10:41.403Z,54.50
2019-02-16T12:13:42.639Z,54.20
2019-02-16T12:16:17.967Z,53.50
2019-02-16T12:19:15.656Z,53.80
2019-02-16T12:22:02.450Z,50.40
2019-02-16T12:25:04.990Z,49.90
2019-02-16T12:28:03.030Z,51.80
2019-02-16T12:31:01.018Z,51.10
2019-02-16T12:33:42.693Z,51.20
2019-02-16T12:36:30.820Z,50.10
2019-02-16T12:39:25.665Z,51.40
2019-02-16T12:42:25.703Z,53.20
2019-02-16T12:45:12.289Z,53.60
2019-02-16T12:48:07.328Z,55.60
2019-02-16T12:51:08.460Z,58.30
2019-02-16T12:54:00.255Z,60.40
2019-02-16T12:56:52.108Z,64.50
2019-02-16T12:59:39.904Z,66.50
2019-02-16T13:02:34.665Z,72.10
2019-02-16T13:05:26.862Z,74.50
2019-02-16T13:08:02.987Z,79.10
2019-02-16T13:10:51.905Z,81.10
2019-02-16T13:13:28.381Z,83.60
2019-02-16T13:16:29.776Z,85.60
2019-02-16T13:19:18.671Z,88.60
2019-02-16T13:22:12.370Z,89.80
2019-02-16T13:25:04.114Z,90.90
2019-02-16T13:27:56.231Z,91.20
2019-02-16T13:30:48.167Z,92.10
2019-02-16T13:33:49.040Z,92.50
2019-02-16T13:36:44.052Z,92.90
2019-02-16T13:39:33.002Z,93.10
2019-02-16T13:42:24.936Z,93.70
2019-02-16T13:45:13.489Z,94.00
2019-02-16T13:48:01.361Z,94.30
2019-02-16T13:50:40.032Z,94.60
2019-02-16T13:53:35.119Z,94.70
2019-02-16T13:56:22.669Z,94.90
2019-02-16T13:59:10.066Z,95.10
2019-02-16T14:02:02.122Z,95.20
2019-02-16T14:04:51.074Z,95.70
2019-02-16T14:07:55.325Z,95.30
2019-02-16T14:10:53.275Z,95.90
2019-02-16T14:13:51.193Z,95.60
2019-02-16T14:16:43.193Z,95.70
2019-02-16T14:19:13.091Z,95.80
2019-02-16T14:21:43.184Z,96.30
2019-02-16T14:24:13.364Z,96.30
2019-02-16T14:26:43.627Z,96.40
2019-02-16T14:29:13.572Z,96.50
2019-02-16T14:31:43.634Z,96.60
2019-02-16T14:34:13.787Z,96.70
2019-02-16T14:36:44.989Z,96.70
2019-02-16T14:39:17.890Z,96.80
2019-02-16T14:41:47.844Z,96.70
2019-02-16T14:44:17.955Z,97.00
2019-02-16T14:46:48.152Z,96.90
2019-02-16T14:49:17.832Z,96.90
2019-02-16T14:51:48.010Z,97.10
2019-02-16T14:54:18.215Z,97.40
2019-02-16T14:56:48.326Z,97.80
2019-02-16T14:59:18.373Z,97.70
2019-02-16T15:01:48.503Z,97.80
2019-02-16T15:04:18.689Z,97.90
2019-02-16T15:06:49.119Z,98.00
2019-02-16T15:09:19.052Z,98.20
2019-02-16T15:11:49.119Z,98.40
2019-02-16T15:14:19.194Z,98.70
2019-02-16T15:16:49.203Z,98.80
2019-02-16T15:19:19.401Z,98.70
2019-02-16T15:21:49.456Z,99.10
2019-02-16T15:24:19.516Z,99.00
2019-02-16T15:26:49.836Z,99.30
2019-02-16T15:29:19.814Z,99.50
2019-02-16T15:31:49.937Z,99.70
2019-02-16T15:34:20.136Z,99.90
2019-02-16T15:36:49.974Z,99.90
2019-02-16T15:39:20.170Z,99.90
2019-02-16T15:41:50.370Z,99.90
2019-02-16T15:44:20.015Z,99.90
2019-02-16T15:46:49.701Z,99.90
2019-02-16T15:49:19.416Z,99.90
2019-02-16T15:51:49.088Z,99.90
2019-02-16T15:54:18.789Z,99.90
2019-02-16T15:56:48.480Z,99.90
2019-02-16T15:59:18.241Z,99.90
2019-02-16T16:01:48.675Z,99.90
2019-02-16T16:04:18.762Z,99.90
2019-02-16T16:06:48.755Z,99.90
2019-02-16T16:09:36.153Z,99.90
2019-02-16T16:12:30.689Z,99.90
2019-02-16T16:15:22.407Z,99.90
2019-02-16T16:18:13.719Z,99.90
2019-02-16T16:20:52.337Z,99.90
2019-02-16T16:23:46.677Z,99.90
2019-02-16T16:26:47.460Z,99.90
2019-02-16T16:29:48.301Z,99.90
2019-02-16T16:32:28.628Z,99.90
2019-02-16T16:35:20.311Z,99.90
2019-02-16T16:38:24.242Z,99.90
2019-02-16T16:41:12.260Z,99.90
2019-02-16T16:44:16.079Z,99.90
2019-02-16T16:47:07.695Z,99.90
2019-02-16T16:49:56.313Z,99.90
2019-02-16T16:53:00.052Z,99.90
2019-02-16T16:55:51.800Z,99.90
2019-02-16T16:58:58.718Z,99.90
2019-02-16T17:01:53.124Z,99.90
2019-02-16T17:04:31.945Z,99.90
2019-02-16T17:07:24.933Z,99.90
2019-02-16T17:10:12.552Z,99.90
2019-02-16T17:12:57.027Z,99.90
2019-02-16T17:15:55.000Z,99.90
2019-02-16T17:18:47.081Z,99.90
2019-02-16T17:21:42.183Z,99.90
2019-02-16T17:24:31.079Z,99.90
2019-02-16T17:27:18.449Z,99.90
2019-02-16T17:30:05.766Z,99.90
2019-02-16T17:33:00.724Z,99.90
2019-02-16T17:35:58.459Z,99.90
2019-02-16T17:38:47.045Z,99.90
2019-02-16T17:41:47.537Z,99.90
2019-02-16T17:44:42.187Z,99.90
2019-02-16T17:47:30.749Z,99.90
2019-02-16T17:50:13.350Z,99.90
2019-02-16T17:52:53.618Z,99.90
2019-02-16T17:55:51.187Z,99.90
2019-02-16T17:58:38.379Z,99.90
2019-02-16T18:01:26.981Z,99.90
2019-02-16T18:04:33.714Z,99.90
2019-02-16T18:07:17.360Z,99.90
2019-02-16T18:10:04.415Z,99.90
2019-02-16T18:12:53.384Z,99.90
2019-02-16T18:15:57.235Z,99.90
2019-02-16T18:18:48.833Z,99.90
2019-02-16T18:21:40.466Z,99.90
2019-02-16T18:24:18.854Z,99.90
2019-02-16T18:27:04.804Z,99.90
2019-02-16T18:29:51.832Z,99.90
2019-02-16T18:32:43.302Z,99.90
2019-02-16T18:35:41.103Z,99.90
2019-02-16T18:38:29.692Z,99.90
2019-02-16T18:41:10.633Z,99.90
2019-02-16T18:43:52.478Z,99.90
2019-02-16T18:46:53.304Z,99.90
2019-02-16T18:49:40.230Z,99.90
2019-02-16T18:52:20.059Z,99.90
2019-02-16T18:55:11.132Z,99.90
2019-02-16T18:57:57.254Z,99.90
2019-02-16T19:00:41.899Z,99.90
2019-02-16T19:03:26.109Z,99.90
2019-02-16T19:06:13.735Z,99.90
2019-02-16T19:08:59.333Z,99.90
2019-02-16T19:11:48.028Z,99.90
2019-02-16T19:14:27.402Z,99.90
2019-02-16T19:17:17.593Z,99.90
2019-02-16T19:20:02.328Z,99.90
2019-02-16T19:22:57.014Z,99.90
2019-02-16T19:25:45.859Z,99.90
2019-02-16T19:28:37.231Z,99.90
2019-02-16T19:31:38.471Z,99.90
2019-02-16T19:34:45.344Z,99.90
2019-02-16T19:37:49.118Z,99.90
2019-02-16T19:40:30.864Z,99.90
2019-02-16T19:43:08.151Z,99.90
2019-02-16T19:46:08.660Z,99.90
2019-02-16T19:48:48.662Z,99.90
2019-02-16T19:51:35.872Z,99.90
2019-02-16T19:54:15.781Z,99.90
2019-02-16T19:57:00.826Z,99.90
2019-02-16T19:59:52.428Z,99.90
2019-02-16T20:02:56.384Z,99.90
2019-02-16T20:05:56.076Z,99.90
2019-02-16T20:08:37.180Z,99.90
2019-02-16T20:11:28.796Z,99.90
2019-02-16T20:14:15.935Z,99.90
2019-02-16T20:17:10.370Z,99.90
2019-02-16T20:19:57.834Z,99.90
2019-02-16T20:23:02.004Z,99.90
2019-02-16T20:25:51.679Z,99.90
2019-02-16T20:28:46.996Z,99.90
2019-02-16T20:31:23.449Z,99.90
2019-02-16T20:34:27.477Z,99.90
2019-02-16T20:37:33.749Z,99.90
2019-02-16T20:40:22.366Z,99.90
2019-02-16T20:42:59.434Z,99.90
2019-02-16T20:45:38.302Z,99.90
2019-02-16T20:48:32.876Z,99.90
2019-02-16T20:51:18.498Z,99.90
2019-02-16T20:54:03.747Z,99.90
2019-02-16T20:56:55.444Z,99.90
2019-02-16T20:59:44.550Z,99.90
2019-02-16T21:02:33.158Z,99.90
2019-02-16T21:05:30.459Z,99.90
2019-02-16T21:08:18.233Z,99.90
2019-02-16T21:11:16.261Z,99.90
2019-02-16T21:13:56.149Z,99.90
2019-02-16T21:16:51.012Z,99.90
2019-02-16T21:19:39.556Z,99.90
2019-02-16T21:22:28.094Z,99.90
2019-02-16T21:25:06.449Z,99.90
2019-02-16T21:27:57.987Z,99.90
2019-02-16T21:30:47.849Z,99.90
2019-02-16T21:33:36.363Z,99.90
2019-02-16T21:36:34.199Z,99.90
2019-02-16T21:39:34.976Z,99.90
2019-02-16T21:42:26.337Z,99.90
2019-02-16T21:45:13.388Z,99.90
2019-02-16T21:47:54.619Z,99.90
2019-02-16T21:50:34.160Z,99.90
2019-02-16T21:53:28.907Z,99.90
2019-02-16T21:56:18.092Z,99.90
2019-02-16T21:59:07.421Z,99.90
2019-02-16T22:01:44.800Z,99.90
2019-02-16T22:04:51.544Z,99.90
2019-02-16T22:07:50.486Z,99.90
2019-02-16T22:10:48.718Z,99.90
2019-02-16T22:13:18.391Z,99.90
2019-02-16T22:15:48.026Z,99.90
2019-02-16T22:18:17.678Z,99.90
2019-02-16T22:20:47.777Z,99.90
2019-02-16T22:23:17.454Z,99.90
2019-02-16T22:25:47.084Z,99.90
2019-02-16T22:28:20.482Z,99.90
2019-02-16T22:30:48.066Z,99.90
2019-02-16T22:33:17.770Z,99.90
2019-02-16T22:35:47.524Z,99.90
2019-02-16T22:38:17.479Z,99.90
2019-02-16T22:40:47.098Z,99.90
2019-02-16T22:43:17.273Z,99.90
2019-02-16T22:45:47.219Z,99.90
2019-02-16T22:48:17.343Z,99.90
2019-02-16T22:50:47.040Z,99.90
2019-02-16T22:53:16.970Z,99.90
2019-02-16T22:55:46.567Z,99.90
2019-02-16T22:58:16.278Z,99.90
2019-02-16T23:00:49.620Z,99.90
2019-02-16T23:03:19.643Z,99.90
2019-02-16T23:05:49.812Z,99.90
2019-02-16T23:08:19.572Z,99.90
2019-02-16T23:10:49.342Z,99.90
2019-02-16T23:13:19.395Z,99.90
2019-02-16T23:15:49.122Z,99.90
2019-02-16T23:18:19.100Z,99.90
2019-02-16T23:20:48.975Z,99.90
2019-02-16T23:23:18.764Z,99.90
2019-02-16T23:25:48.430Z,99.90
2019-02-16T23:28:20.873Z,99.90
2019-02-16T23:30:50.613Z,99.90
2019-02-16T23:33:20.294Z,99.90
2019-02-16T23:35:50.252Z,99.90
2019-02-16T23:38:19.990Z,99.90
2019-02-16T23:40:50.084Z,99.90
2019-02-16T23:43:19.906Z,99.90
2019-02-16T23:45:49.961Z,99.90
2019-02-16T23:48:19.975Z,99.90
2019-02-16T23:50:49.801Z,99.90
2019-02-16T23:53:19.853Z,99.90
2019-02-16T23:55:51.223Z,99.90
2019-02-16T23:58:21.374Z,99.90
